createdAt,value
2023-02-21T00:00:30.350Z,16.60
2023-02-21T00:01:30.330Z,15.60
2023-02-21T00:02:30.348Z,15.30
2023-02-21T00:03:31.238Z,14.00
2023-02-21T00:04:30.341Z,14.30
2023-02-21T00:05:30.375Z,15.20
2023-02-21T00:06:30.350Z,15.60
2023-02-21T00:07:30.313Z,15.30
2023-02-21T00:08:30.334Z,16.50
2023-02-21T00:09:30.291Z,15.10
2023-02-21T00:10:30.290Z,16.30
2023-02-21T00:11:30.294Z,16.80
2023-02-21T00:12:30.275Z,17.70
2023-02-21T00:13:30.266Z,17.10
2023-02-21T00:14:31.236Z,16.50
2023-02-21T00:15:30.266Z,18.20
2023-02-21T00:16:30.272Z,17.40
2023-02-21T00:17:30.255Z,17.40
2023-02-21T00:18:30.238Z,16.80
2023-02-21T00:19:30.292Z,16.90
2023-02-21T00:20:30.288Z,17.00
2023-02-21T00:21:30.258Z,17.80
2023-02-21T00:22:30.224Z,16.60
2023-02-21T00:23:30.798Z,16.90
2023-02-21T00:24:30.218Z,17.20
2023-02-21T00:25:30.235Z,17.10
2023-02-21T00:26:30.247Z,17.10
2023-02-21T00:27:30.218Z,16.40
2023-02-21T00:28:30.201Z,16.80
2023-02-21T00:29:30.189Z,14.80
2023-02-21T00:30:30.353Z,16.30
2023-02-21T00:31:30.221Z,15.60
2023-02-21T00:32:30.252Z,17.00
2023-02-21T00:33:30.829Z,17.40
2023-02-21T00:34:30.273Z,17.00
2023-02-21T00:35:30.188Z,16.50
2023-02-21T00:36:30.147Z,18.90
2023-02-21T00:37:30.152Z,17.40
2023-02-21T00:38:30.143Z,16.90
2023-02-21T00:39:30.098Z,17.40
2023-02-21T00:40:30.136Z,18.60
2023-02-21T00:41:30.117Z,18.40
2023-02-21T00:42:30.129Z,18.50
2023-02-21T00:43:30.087Z,19.30
2023-02-21T00:44:30.093Z,19.70
2023-02-21T00:45:30.118Z,18.20
2023-02-21T00:46:30.097Z,19.00
2023-02-21T00:47:30.082Z,19.20
2023-02-21T00:48:30.069Z,19.10
2023-02-21T00:49:30.054Z,18.50
2023-02-21T00:50:30.116Z,20.60
2023-02-21T00:51:30.060Z,20.20
2023-02-21T00:52:30.031Z,19.60
2023-02-21T00:53:30.037Z,20.10
2023-02-21T00:54:30.051Z,19.70
2023-02-21T00:55:30.024Z,18.90
2023-02-21T00:56:30.075Z,20.00
2023-02-21T00:57:30.015Z,18.80
2023-02-21T00:58:30.055Z,20.50
2023-02-21T00:59:29.990Z,19.60
2023-02-21T01:00:30.004Z,19.50
2023-02-21T01:01:30.024Z,20.10
2023-02-21T01:02:30.732Z,20.20
2023-02-21T01:03:30.000Z,19.00
2023-02-21T01:04:29.987Z,20.60
2023-02-21T01:05:29.966Z,19.80
2023-02-21T01:06:29.994Z,19.20
2023-02-21T01:07:29.935Z,20.50
2023-02-21T01:08:31.742Z,19.80
2023-02-21T01:09:29.952Z,20.00
2023-02-21T01:10:30.936Z,19.50
2023-02-21T01:11:29.927Z,19.20
2023-02-21T01:12:29.920Z,19.30
2023-02-21T01:13:29.940Z,18.90
2023-02-21T01:14:29.905Z,19.50
2023-02-21T01:15:29.923Z,19.40
2023-02-21T01:16:29.889Z,20.40
2023-02-21T01:17:29.887Z,21.10
2023-02-21T01:18:29.936Z,18.90
2023-02-21T01:19:30.872Z,19.10
2023-02-21T01:20:29.917Z,19.70
2023-02-21T01:21:29.874Z,21.30
2023-02-21T01:22:29.892Z,19.50
2023-02-21T01:23:29.929Z,20.70
2023-02-21T01:24:29.840Z,19.90
2023-02-21T01:25:29.889Z,21.20
2023-02-21T01:26:29.842Z,21.30
2023-02-21T01:27:30.749Z,20.80
2023-02-21T01:28:29.817Z,22.20
2023-02-21T01:29:29.832Z,20.20
2023-02-21T01:30:30.733Z,20.00
2023-02-21T01:31:29.908Z,22.00
2023-02-21T01:32:29.890Z,20.60
2023-02-21T01:33:29.797Z,22.10
2023-02-21T01:34:29.770Z,20.90
2023-02-21T01:35:29.793Z,21.20
2023-02-21T01:36:29.791Z,23.40
2023-02-21T01:37:29.781Z,22.50
2023-02-21T01:38:29.799Z,23.00
2023-02-21T01:39:29.784Z,22.50
2023-02-21T01:40:29.781Z,22.60
2023-02-21T01:41:29.802Z,22.90
2023-02-21T01:42:29.729Z,22.40
2023-02-21T01:43:29.764Z,21.70
2023-02-21T01:44:29.759Z,22.90
2023-02-21T01:45:29.727Z,22.70
2023-02-21T01:46:29.815Z,23.40
2023-02-21T01:47:29.740Z,22.80
2023-02-21T01:48:29.727Z,22.90
2023-02-21T01:49:29.690Z,24.60
2023-02-21T01:50:29.694Z,26.00
2023-02-21T01:51:29.686Z,24.60
2023-02-21T01:52:29.673Z,22.90
2023-02-21T01:53:29.704Z,24.80
2023-02-21T01:54:29.656Z,26.00
2023-02-21T01:55:29.657Z,24.40
2023-02-21T01:56:29.770Z,25.70
2023-02-21T01:57:29.643Z,24.60
2023-02-21T01:58:29.673Z,24.80
2023-02-21T01:59:29.620Z,25.50
2023-02-21T02:00:29.642Z,24.70
2023-02-21T02:01:29.655Z,24.90
2023-02-21T02:02:29.664Z,25.50
2023-02-21T02:03:29.625Z,26.00
2023-02-21T02:04:29.660Z,26.40
2023-02-21T02:05:29.587Z,25.20
2023-02-21T02:06:29.637Z,26.10
2023-02-21T02:07:29.664Z,26.60
2023-02-21T02:08:29.577Z,25.70
2023-02-21T02:09:29.589Z,25.40
2023-02-21T02:10:29.579Z,25.70
2023-02-21T02:11:29.560Z,26.80
2023-02-21T02:12:29.581Z,24.70
2023-02-21T02:13:29.566Z,25.60
2023-02-21T02:14:29.539Z,24.70
2023-02-21T02:15:29.531Z,26.00
2023-02-21T02:16:29.527Z,27.40
2023-02-21T02:17:29.536Z,26.20
2023-02-21T02:18:29.545Z,25.40
2023-02-21T02:19:29.532Z,26.10
2023-02-21T02:20:29.555Z,27.00
2023-02-21T02:21:29.495Z,27.10
2023-02-21T02:22:29.487Z,26.10
2023-02-21T02:23:29.496Z,27.30
2023-02-21T02:24:29.460Z,25.20
2023-02-21T02:25:29.487Z,27.40
2023-02-21T02:26:29.522Z,26.50
2023-02-21T02:27:29.460Z,25.40
2023-02-21T02:28:29.460Z,25.00
2023-02-21T02:29:29.432Z,25.80
2023-02-21T02:30:29.500Z,25.60
2023-02-21T02:31:29.538Z,26.00
2023-02-21T02:32:29.407Z,26.20
2023-02-21T02:33:29.462Z,24.00
2023-02-21T02:34:29.416Z,26.10
2023-02-21T02:35:29.402Z,24.50
2023-02-21T02:36:29.427Z,23.60
2023-02-21T02:37:29.391Z,24.50
2023-02-21T02:38:29.406Z,25.20
2023-02-21T02:39:29.397Z,24.40
2023-02-21T02:40:29.427Z,24.30
2023-02-21T02:41:29.363Z,23.70
2023-02-21T02:42:29.395Z,25.20
2023-02-21T02:43:29.380Z,23.70
2023-02-21T02:44:29.373Z,24.10
2023-02-21T02:45:29.378Z,22.50
2023-02-21T02:46:29.460Z,24.60
2023-02-21T02:47:29.366Z,23.60
2023-02-21T02:48:29.316Z,24.10
2023-02-21T02:49:29.322Z,22.50
2023-02-21T02:50:29.291Z,23.30
2023-02-21T02:51:29.320Z,25.00
2023-02-21T02:52:29.317Z,23.00
2023-02-21T02:53:29.283Z,23.80
2023-02-21T02:54:29.285Z,23.90
2023-02-21T02:55:29.268Z,25.30
2023-02-21T02:56:29.277Z,25.80
2023-02-21T02:57:29.260Z,25.10
2023-02-21T02:58:29.272Z,24.90
2023-02-21T02:59:29.321Z,24.70
2023-02-21T03:00:29.238Z,25.70
2023-02-21T03:01:29.287Z,25.40
2023-02-21T03:02:29.244Z,25.10
2023-02-21T03:03:29.274Z,24.90
2023-02-21T03:04:29.248Z,24.20
2023-02-21T03:05:29.237Z,23.90
2023-02-21T03:06:30.239Z,24.80
2023-02-21T03:07:29.224Z,24.60
2023-02-21T03:08:29.210Z,24.50
2023-02-21T03:09:29.193Z,23.50
2023-02-21T03:10:29.211Z,24.30
2023-02-21T03:11:29.166Z,25.20
2023-02-21T03:12:29.194Z,22.50
2023-02-21T03:13:29.159Z,22.60
2023-02-21T03:14:29.189Z,23.30
2023-02-21T03:15:29.208Z,22.30
2023-02-21T03:16:29.136Z,24.50
2023-02-21T03:17:29.147Z,23.90
2023-02-21T03:18:29.127Z,23.90
2023-02-21T03:19:29.123Z,23.20
2023-02-21T03:20:29.175Z,23.40
2023-02-21T03:21:29.129Z,24.70
2023-02-21T03:22:29.115Z,23.70
2023-02-21T03:23:29.115Z,23.10
2023-02-21T03:24:29.096Z,26.10
2023-02-21T03:25:29.160Z,24.40
2023-02-21T03:26:29.086Z,24.80
2023-02-21T03:27:29.092Z,24.40
2023-02-21T03:28:29.095Z,23.80
2023-02-21T03:29:29.063Z,24.60
2023-02-21T03:30:29.105Z,24.30
2023-02-21T03:31:29.220Z,25.50
2023-02-21T03:32:29.087Z,25.30
2023-02-21T03:33:29.079Z,26.60
2023-02-21T03:34:30.079Z,25.30
2023-02-21T03:35:29.040Z,26.30
2023-02-21T03:36:29.061Z,25.90
2023-02-21T03:37:29.048Z,27.60
2023-02-21T03:38:29.036Z,26.40
2023-02-21T03:39:29.030Z,26.80
2023-02-21T03:40:29.019Z,27.20
2023-02-21T03:41:29.051Z,25.90
2023-02-21T03:42:29.036Z,25.60
2023-02-21T03:43:29.025Z,25.60
2023-02-21T03:44:28.976Z,27.50
2023-02-21T03:45:29.031Z,26.50
2023-02-21T03:46:29.006Z,27.30
2023-02-21T03:47:28.968Z,27.10
2023-02-21T03:48:32.346Z,28.30
2023-02-21T03:49:30.003Z,27.00
2023-02-21T03:50:28.979Z,29.40
2023-02-21T03:51:28.975Z,29.20
2023-02-21T03:52:28.955Z,29.40
2023-02-21T03:53:28.945Z,27.70
2023-02-21T03:54:28.988Z,28.50
2023-02-21T03:55:28.953Z,30.00
2023-02-21T03:56:41.172Z,27.70
2023-02-21T03:57:30.945Z,28.70
2023-02-21T03:58:28.928Z,28.30
2023-02-21T03:59:29.787Z,29.10
2023-02-21T04:00:28.913Z,28.10
2023-02-21T04:01:28.883Z,29.70
2023-02-21T04:02:28.931Z,28.50
2023-02-21T04:03:28.905Z,29.50
2023-02-21T04:04:28.920Z,29.10
2023-02-21T04:05:28.895Z,28.10
2023-02-21T04:06:28.875Z,29.50
2023-02-21T04:07:28.882Z,27.90
2023-02-21T04:08:29.729Z,25.40
2023-02-21T04:09:28.920Z,28.00
2023-02-21T04:10:28.837Z,28.20
2023-02-21T04:11:28.862Z,28.40
2023-02-21T04:12:28.891Z,29.40
2023-02-21T04:13:28.849Z,29.40
2023-02-21T04:14:28.822Z,29.30
2023-02-21T04:15:28.827Z,29.70
2023-02-21T04:16:28.925Z,29.70
2023-02-21T04:17:28.859Z,29.80
2023-02-21T04:18:28.796Z,30.00
2023-02-21T04:19:29.725Z,32.00
2023-02-21T04:20:28.822Z,30.30
2023-02-21T04:21:28.807Z,30.40
2023-02-21T04:22:28.792Z,30.80
2023-02-21T04:23:28.776Z,29.30
2023-02-21T04:24:28.787Z,31.90
2023-02-21T04:25:28.759Z,32.20
2023-02-21T04:26:28.748Z,32.10
2023-02-21T04:27:28.739Z,32.10
2023-02-21T04:28:29.768Z,31.80
2023-02-21T04:29:28.732Z,32.00
2023-02-21T04:30:28.857Z,31.40
2023-02-21T04:31:28.792Z,31.90
2023-02-21T04:32:28.744Z,32.50
2023-02-21T04:33:28.720Z,32.90
2023-02-21T04:34:28.751Z,32.70
2023-02-21T04:35:28.715Z,33.00
2023-02-21T04:36:28.681Z,32.30
2023-02-21T04:37:28.725Z,31.90
2023-02-21T04:38:28.684Z,32.10
2023-02-21T04:39:28.681Z,33.70
2023-02-21T04:40:28.716Z,31.70
2023-02-21T04:41:28.716Z,32.30
2023-02-21T04:42:28.671Z,32.60
2023-02-21T04:43:28.690Z,32.90
2023-02-21T04:44:28.710Z,32.60
2023-02-21T04:45:28.699Z,32.30
2023-02-21T04:46:28.642Z,33.50
2023-02-21T04:47:28.634Z,31.10
2023-02-21T04:48:28.619Z,33.40
2023-02-21T04:49:28.663Z,32.20
2023-02-21T04:50:28.649Z,32.40
2023-02-21T04:51:28.627Z,32.60
2023-02-21T04:52:28.612Z,33.60
2023-02-21T04:53:28.599Z,32.00
2023-02-21T04:54:28.609Z,33.70
2023-02-21T04:55:28.611Z,32.90
2023-02-21T04:56:28.642Z,34.40
2023-02-21T04:57:28.598Z,33.00
2023-02-21T04:58:31.182Z,31.70
2023-02-21T04:59:30.690Z,31.70
2023-02-21T05:00:28.581Z,32.60
2023-02-21T05:01:28.626Z,31.90
2023-02-21T05:02:28.570Z,34.30
2023-02-21T05:03:28.590Z,31.70
2023-02-21T05:04:28.637Z,33.40
2023-02-21T05:05:28.602Z,34.10
2023-02-21T05:06:28.532Z,33.50
2023-02-21T05:07:28.536Z,32.20
2023-02-21T05:08:28.858Z,32.50
2023-02-21T05:09:29.523Z,32.50
2023-02-21T05:10:43.568Z,32.80
2023-02-21T05:11:30.522Z,34.40
2023-02-21T05:12:28.544Z,32.60
2023-02-21T05:13:28.539Z,29.90
2023-02-21T05:14:29.236Z,31.00
2023-02-21T05:15:28.530Z,31.30
2023-02-21T05:16:28.546Z,30.60
2023-02-21T05:17:28.472Z,30.70
2023-02-21T05:18:28.511Z,29.70
2023-02-21T05:19:28.481Z,30.20
2023-02-21T05:20:28.458Z,29.90
2023-02-21T05:21:28.445Z,29.30
2023-02-21T05:22:28.460Z,29.30
2023-02-21T05:23:28.465Z,29.20
2023-02-21T05:24:28.440Z,30.50
2023-02-21T05:25:28.446Z,28.90
2023-02-21T05:26:28.412Z,31.60
2023-02-21T05:27:28.408Z,29.20
2023-02-21T05:28:28.448Z,29.20
2023-02-21T05:29:28.408Z,30.00
2023-02-21T05:30:28.485Z,30.80
2023-02-21T05:31:29.507Z,29.20
2023-02-21T05:32:29.307Z,30.60
2023-02-21T05:33:28.393Z,28.70
2023-02-21T05:34:28.382Z,30.00
2023-02-21T05:35:28.367Z,32.60
2023-02-21T05:36:28.353Z,30.60
2023-02-21T05:37:31.282Z,30.80
2023-02-21T05:38:29.409Z,30.60
2023-02-21T05:39:28.394Z,31.00
2023-02-21T05:40:28.362Z,31.30
2023-02-21T05:41:28.366Z,30.30
2023-02-21T05:42:28.364Z,31.80
2023-02-21T05:43:29.209Z,30.10
2023-02-21T05:44:29.335Z,31.50
2023-02-21T05:45:28.320Z,30.20
2023-02-21T05:46:28.316Z,31.10
2023-02-21T05:47:28.299Z,29.80
2023-02-21T05:48:29.320Z,32.40
2023-02-21T05:49:28.362Z,31.20
2023-02-21T05:50:28.312Z,31.00
2023-02-21T05:51:28.262Z,30.80
2023-02-21T05:52:28.297Z,30.40
2023-02-21T05:53:28.320Z,29.40
2023-02-21T05:54:28.272Z,29.60
2023-02-21T05:55:28.292Z,29.20
2023-02-21T05:56:28.281Z,30.30
2023-02-21T05:57:28.301Z,29.90
2023-02-21T05:58:28.260Z,30.90
2023-02-21T05:59:28.248Z,31.30
2023-02-21T06:00:28.245Z,32.70
2023-02-21T06:01:28.250Z,30.10
2023-02-21T06:02:29.288Z,30.80
2023-02-21T06:03:28.801Z,30.90
2023-02-21T06:04:28.202Z,31.00
2023-02-21T06:05:28.243Z,30.90
2023-02-21T06:06:28.196Z,30.60
2023-02-21T06:07:28.165Z,28.80
2023-02-21T06:08:28.164Z,30.40
2023-02-21T06:09:28.184Z,31.30
2023-02-21T06:10:28.171Z,31.70
2023-02-21T06:11:29.200Z,29.80
2023-02-21T06:12:28.175Z,31.50
2023-02-21T06:13:28.132Z,31.40
2023-02-21T06:14:28.173Z,31.90
2023-02-21T06:15:28.133Z,29.10
2023-02-21T06:16:28.184Z,31.50
2023-02-21T06:17:28.122Z,29.40
2023-02-21T06:18:28.130Z,29.80
2023-02-21T06:19:28.151Z,31.10
2023-02-21T06:20:28.121Z,30.20
2023-02-21T06:21:28.168Z,32.60
2023-02-21T06:22:28.754Z,31.80
2023-02-21T06:23:28.124Z,31.40
2023-02-21T06:24:28.216Z,32.30
2023-02-21T06:25:28.104Z,31.20
2023-02-21T06:26:28.121Z,32.90
2023-02-21T06:27:28.175Z,31.50
2023-02-21T06:28:28.091Z,32.60
2023-02-21T06:29:28.746Z,30.00
2023-02-21T06:30:28.182Z,32.80
2023-02-21T06:31:28.128Z,31.40
2023-02-21T06:32:28.028Z,31.00
2023-02-21T06:33:28.058Z,112.10
2023-02-21T06:34:28.020Z,31.10
2023-02-21T06:35:28.051Z,36.30
2023-02-21T06:36:28.027Z,32.90
2023-02-21T06:37:28.011Z,31.30
2023-02-21T06:38:28.009Z,31.40
2023-02-21T06:39:27.987Z,32.50
2023-02-21T06:40:28.000Z,31.50
2023-02-21T06:41:27.979Z,33.00
2023-02-21T06:42:27.984Z,59.40
2023-02-21T06:43:27.985Z,57.60
2023-02-21T06:44:28.001Z,33.40
2023-02-21T06:45:28.001Z,34.10
2023-02-21T06:46:28.035Z,33.40
2023-02-21T06:47:27.955Z,45.50
2023-02-21T06:48:27.933Z,37.70
2023-02-21T06:49:27.941Z,31.00
2023-02-21T06:50:27.922Z,30.90
2023-02-21T06:51:27.940Z,30.80
2023-02-21T06:52:27.939Z,32.30
2023-02-21T06:53:27.944Z,30.80
2023-02-21T06:54:27.950Z,31.90
2023-02-21T06:55:27.974Z,31.70
2023-02-21T06:56:27.898Z,31.20
2023-02-21T06:57:27.924Z,31.10
2023-02-21T06:58:27.896Z,30.70
2023-02-21T06:59:27.871Z,32.60
2023-02-21T07:00:27.879Z,32.40
2023-02-21T07:01:27.944Z,30.90
2023-02-21T07:02:27.874Z,31.50
2023-02-21T07:03:27.839Z,32.50
2023-02-21T07:04:27.958Z,31.60
2023-02-21T07:05:27.827Z,31.80
2023-02-21T07:06:29.702Z,32.70
2023-02-21T07:07:28.881Z,35.20
2023-02-21T07:08:27.836Z,41.90
2023-02-21T07:09:27.837Z,54.60
2023-02-21T07:10:27.792Z,36.90
2023-02-21T07:11:27.800Z,56.20
2023-02-21T07:12:27.796Z,61.20
2023-02-21T07:13:27.828Z,47.80
2023-02-21T07:14:27.805Z,39.50
2023-02-21T07:15:27.812Z,47.20
2023-02-21T07:16:27.793Z,48.30
2023-02-21T07:17:27.772Z,45.00
2023-02-21T07:18:27.783Z,39.20
2023-02-21T07:19:27.808Z,44.80
2023-02-21T07:20:27.749Z,36.00
2023-02-21T07:21:27.777Z,35.90
2023-02-21T07:22:27.748Z,43.20
2023-02-21T07:23:27.735Z,37.60
2023-02-21T07:24:27.724Z,45.20
2023-02-21T07:25:27.750Z,45.50
2023-02-21T07:26:27.746Z,44.20
2023-02-21T07:27:27.722Z,37.90
2023-02-21T07:28:27.735Z,37.10
2023-02-21T07:29:27.741Z,36.20
2023-02-21T07:30:27.782Z,44.10
2023-02-21T07:31:27.840Z,37.30
2023-02-21T07:32:27.732Z,56.90
2023-02-21T07:33:27.703Z,39.60
2023-02-21T07:34:27.673Z,41.30
2023-02-21T07:35:27.707Z,36.90
2023-02-21T07:36:27.653Z,37.40
2023-02-21T07:37:27.651Z,34.20
2023-02-21T07:38:27.655Z,38.40
2023-02-21T07:39:27.663Z,50.10
2023-02-21T07:40:27.756Z,43.90
2023-02-21T07:41:27.644Z,33.60
2023-02-21T07:42:27.640Z,32.60
2023-02-21T07:43:27.639Z,33.40
2023-02-21T07:44:27.628Z,46.50
2023-02-21T07:45:27.628Z,33.50
2023-02-21T07:46:28.267Z,39.20
2023-02-21T07:47:27.633Z,37.00
2023-02-21T07:48:27.622Z,38.60
2023-02-21T07:49:27.588Z,40.40
2023-02-21T07:50:27.609Z,39.90
2023-02-21T07:51:27.577Z,37.90
2023-02-21T07:52:27.560Z,32.90
2023-02-21T07:53:27.559Z,32.30
2023-02-21T07:54:27.543Z,34.50
2023-02-21T07:55:27.609Z,33.60
2023-02-21T07:56:27.574Z,31.00
2023-02-21T07:57:27.525Z,32.00
2023-02-21T07:58:27.535Z,31.10
2023-02-21T07:59:27.525Z,31.10
2023-02-21T08:00:27.585Z,31.60
2023-02-21T08:01:27.573Z,29.70
2023-02-21T08:02:27.506Z,30.50
2023-02-21T08:03:27.503Z,31.20
2023-02-21T08:04:27.560Z,31.10
2023-02-21T08:05:27.511Z,30.70
2023-02-21T08:06:27.471Z,30.30
2023-02-21T08:07:27.476Z,31.10
2023-02-21T08:08:27.472Z,31.00
2023-02-21T08:09:27.462Z,30.30
2023-02-21T08:10:27.444Z,30.00
2023-02-21T08:11:27.446Z,30.50
2023-02-21T08:12:27.461Z,31.30
2023-02-21T08:13:27.418Z,31.20
2023-02-21T08:14:27.871Z,29.40
2023-02-21T08:15:27.472Z,30.40
2023-02-21T08:16:27.433Z,30.50
2023-02-21T08:17:27.392Z,31.10
2023-02-21T08:18:28.429Z,29.80
2023-02-21T08:19:27.393Z,30.10
2023-02-21T08:20:27.377Z,30.30
2023-02-21T08:21:27.367Z,31.90
2023-02-21T08:22:27.355Z,31.00
2023-02-21T08:23:27.362Z,31.80
2023-02-21T08:24:27.358Z,30.00
2023-02-21T08:25:27.363Z,32.20
2023-02-21T08:26:27.336Z,31.00
2023-02-21T08:27:27.315Z,31.70
2023-02-21T08:28:27.327Z,33.10
2023-02-21T08:29:27.322Z,33.90
2023-02-21T08:30:27.497Z,32.70
2023-02-21T08:31:27.327Z,33.20
2023-02-21T08:32:27.329Z,32.60
2023-02-21T08:33:27.306Z,31.00
2023-02-21T08:34:27.298Z,33.90
2023-02-21T08:35:27.284Z,33.20
2023-02-21T08:36:27.267Z,33.10
2023-02-21T08:37:27.269Z,33.50
2023-02-21T08:38:27.252Z,31.00
2023-02-21T08:39:27.322Z,32.00
2023-02-21T08:40:27.236Z,30.90
2023-02-21T08:41:27.248Z,30.10
2023-02-21T08:42:27.241Z,30.90
2023-02-21T08:43:27.242Z,32.00
2023-02-21T08:44:27.246Z,31.20
2023-02-21T08:45:27.250Z,30.30
2023-02-21T08:46:27.257Z,31.60
2023-02-21T08:47:27.188Z,29.50
2023-02-21T08:48:27.201Z,30.70
2023-02-21T08:49:27.218Z,31.10
2023-02-21T08:50:27.183Z,28.90
2023-02-21T08:51:27.171Z,30.90
2023-02-21T08:52:27.178Z,30.30
2023-02-21T08:53:27.163Z,30.90
2023-02-21T08:54:27.169Z,30.40
2023-02-21T08:55:27.133Z,31.70
2023-02-21T08:56:27.126Z,31.70
2023-02-21T08:57:27.155Z,29.80
2023-02-21T08:58:27.245Z,30.00
2023-02-21T08:59:27.143Z,31.00
2023-02-21T09:00:27.132Z,32.20
2023-02-21T09:01:27.232Z,31.60
2023-02-21T09:02:27.148Z,32.70
2023-02-21T09:03:27.095Z,31.80
2023-02-21T09:04:27.097Z,31.50
2023-02-21T09:05:27.109Z,32.90
2023-02-21T09:06:27.075Z,32.10
2023-02-21T09:07:27.075Z,32.80
2023-02-21T09:08:27.063Z,30.80
2023-02-21T09:09:27.051Z,32.20
2023-02-21T09:10:27.102Z,31.10
2023-02-21T09:11:27.082Z,32.10
2023-02-21T09:12:27.045Z,32.90
2023-02-21T09:13:27.041Z,33.70
2023-02-21T09:14:27.030Z,31.50
2023-02-21T09:15:27.032Z,31.90
2023-02-21T09:16:27.047Z,32.90
2023-02-21T09:17:26.993Z,32.00
2023-02-21T09:18:27.065Z,29.40
2023-02-21T09:19:27.001Z,31.80
2023-02-21T09:20:27.072Z,33.00
2023-02-21T09:21:27.736Z,31.60
2023-02-21T09:22:26.974Z,33.00
2023-02-21T09:23:27.025Z,33.00
2023-02-21T09:24:26.966Z,32.60
2023-02-21T09:25:26.955Z,32.20
2023-02-21T09:26:26.978Z,32.80
2023-02-21T09:27:26.950Z,32.90
2023-02-21T09:28:26.979Z,32.30
2023-02-21T09:29:31.591Z,32.20
2023-02-21T09:30:27.952Z,30.90
2023-02-21T09:31:26.994Z,30.90
2023-02-21T09:32:26.927Z,31.50
2023-02-21T09:33:26.930Z,32.90
2023-02-21T09:34:26.925Z,33.60
2023-02-21T09:35:27.907Z,33.10
2023-02-21T09:36:26.884Z,32.60
2023-02-21T09:37:26.883Z,30.40
2023-02-21T09:38:26.885Z,31.70
2023-02-21T09:39:26.861Z,30.00
2023-02-21T09:40:26.871Z,32.40
2023-02-21T09:41:27.726Z,32.30
2023-02-21T09:42:26.855Z,29.40
2023-02-21T09:43:26.862Z,30.40
2023-02-21T09:44:26.859Z,30.00
2023-02-21T09:45:26.893Z,30.10
2023-02-21T09:46:26.845Z,30.50
2023-02-21T09:47:26.813Z,30.00
2023-02-21T09:48:26.842Z,30.60
2023-02-21T09:49:26.801Z,29.90
2023-02-21T09:50:26.802Z,30.60
2023-02-21T09:51:26.802Z,32.40
2023-02-21T09:52:27.724Z,31.90
2023-02-21T09:53:26.772Z,31.40
2023-02-21T09:54:26.771Z,31.00
2023-02-21T09:55:29.054Z,29.90
2023-02-21T09:56:26.857Z,30.90
2023-02-21T09:57:26.748Z,30.20
2023-02-21T09:58:26.732Z,31.10
2023-02-21T09:59:26.732Z,28.70
2023-02-21T10:00:26.715Z,30.70
2023-02-21T10:01:26.782Z,30.50
2023-02-21T10:02:26.721Z,30.90
2023-02-21T10:03:26.712Z,30.90
2023-02-21T10:04:26.712Z,29.10
2023-02-21T10:05:26.686Z,29.70
2023-02-21T10:06:26.696Z,30.00
2023-02-21T10:07:26.665Z,29.60
2023-02-21T10:08:26.678Z,29.50
2023-02-21T10:09:26.646Z,27.40
2023-02-21T10:10:26.678Z,29.30
2023-02-21T10:11:26.673Z,29.00
2023-02-21T10:12:26.631Z,29.40
2023-02-21T10:13:26.687Z,29.70
2023-02-21T10:14:26.626Z,29.70
2023-02-21T10:15:26.623Z,29.10
2023-02-21T10:16:26.663Z,30.30
2023-02-21T10:17:26.610Z,28.40
2023-02-21T10:18:26.606Z,29.00
2023-02-21T10:19:27.589Z,28.20
2023-02-21T10:20:26.599Z,27.90
2023-02-21T10:21:26.590Z,29.10
2023-02-21T10:22:26.631Z,30.60
2023-02-21T10:23:26.555Z,29.70
2023-02-21T10:24:26.555Z,27.50
2023-02-21T10:25:27.231Z,29.40
2023-02-21T10:26:26.549Z,28.00
2023-02-21T10:27:26.554Z,27.60
2023-02-21T10:28:26.554Z,27.30
2023-02-21T10:29:26.529Z,29.40
2023-02-21T10:30:26.676Z,28.30
2023-02-21T10:31:26.548Z,28.60
2023-02-21T10:32:26.523Z,26.70
2023-02-21T10:33:26.506Z,29.10
2023-02-21T10:34:26.489Z,27.80
2023-02-21T10:35:26.525Z,26.70
2023-02-21T10:36:26.501Z,29.90
2023-02-21T10:37:26.560Z,29.80
2023-02-21T10:38:26.522Z,28.80
2023-02-21T10:39:26.458Z,28.00
2023-02-21T10:40:26.468Z,28.20
2023-02-21T10:41:26.495Z,27.70
2023-02-21T10:42:26.457Z,27.10
2023-02-21T10:43:26.458Z,26.60
2023-02-21T10:44:26.480Z,27.20
2023-02-21T10:45:26.437Z,26.90
2023-02-21T10:46:26.446Z,26.30
2023-02-21T10:47:26.400Z,26.70
2023-02-21T10:48:26.416Z,28.50
2023-02-21T10:49:26.411Z,25.90
2023-02-21T10:50:26.388Z,25.30
2023-02-21T10:51:26.401Z,24.40
2023-02-21T10:52:26.381Z,24.50
2023-02-21T10:53:26.421Z,26.30
2023-02-21T10:54:26.397Z,24.10
2023-02-21T10:55:33.090Z,23.20
2023-02-21T10:56:28.373Z,22.00
2023-02-21T10:57:26.335Z,23.10
2023-02-21T10:58:27.246Z,23.00
2023-02-21T10:59:26.328Z,22.30
2023-02-21T11:00:26.350Z,22.80
2023-02-21T11:01:26.373Z,23.50
2023-02-21T11:02:26.333Z,24.90
2023-02-21T11:03:26.328Z,25.00
2023-02-21T11:04:26.288Z,24.50
2023-02-21T11:05:26.320Z,24.90
2023-02-21T11:06:27.977Z,28.40
2023-02-21T11:07:27.272Z,26.30
2023-02-21T11:08:26.276Z,26.00
2023-02-21T11:09:26.341Z,25.00
2023-02-21T11:10:26.297Z,23.60
2023-02-21T11:11:26.242Z,22.70
2023-02-21T11:12:26.268Z,23.00
2023-02-21T11:13:26.232Z,22.80
2023-02-21T11:14:26.291Z,23.10
2023-02-21T11:15:26.228Z,23.00
2023-02-21T11:16:26.259Z,23.00
2023-02-21T11:17:26.228Z,24.30
2023-02-21T11:18:27.215Z,23.60
2023-02-21T11:19:26.252Z,22.50
2023-02-21T11:20:26.232Z,20.40
2023-02-21T11:21:26.226Z,20.10
2023-02-21T11:22:26.225Z,21.40
2023-02-21T11:23:26.208Z,24.30
2023-02-21T11:24:26.187Z,23.20
2023-02-21T11:25:26.386Z,23.10
2023-02-21T11:26:26.195Z,23.10
2023-02-21T11:27:26.178Z,22.00
2023-02-21T11:28:26.221Z,21.70
2023-02-21T11:29:26.165Z,21.40
2023-02-21T11:30:26.182Z,21.00
2023-02-21T11:31:26.199Z,20.90
2023-02-21T11:32:26.183Z,20.20
2023-02-21T11:33:26.136Z,19.80
2023-02-21T11:34:26.148Z,19.70
2023-02-21T11:35:26.121Z,19.30
2023-02-21T11:36:26.778Z,18.10
2023-02-21T11:37:26.103Z,20.80
2023-02-21T11:38:28.369Z,18.70
2023-02-21T11:39:26.134Z,18.50
2023-02-21T11:40:26.088Z,20.20
2023-02-21T11:41:26.079Z,18.50
2023-02-21T11:42:26.085Z,18.10
2023-02-21T11:43:26.778Z,17.80
2023-02-21T11:44:26.170Z,17.90
2023-02-21T11:45:26.644Z,17.80
2023-02-21T11:46:26.073Z,17.10
2023-02-21T11:47:26.058Z,17.00
2023-02-21T11:48:26.033Z,16.40
2023-02-21T11:49:26.152Z,16.60
2023-02-21T11:50:26.043Z,16.80
2023-02-21T11:51:26.010Z,16.20
2023-02-21T11:52:27.015Z,15.90
2023-02-21T11:53:26.087Z,17.30
2023-02-21T11:54:26.023Z,18.70
2023-02-21T11:55:26.604Z,20.10
2023-02-21T11:56:26.992Z,19.00
2023-02-21T11:57:25.998Z,18.40
2023-02-21T11:58:26.100Z,18.70
2023-02-21T11:59:25.970Z,17.60
2023-02-21T12:00:27.005Z,19.10
2023-02-21T12:01:25.985Z,20.20
2023-02-21T12:02:26.785Z,20.40
2023-02-21T12:03:25.946Z,19.50
2023-02-21T12:04:25.938Z,20.90
2023-02-21T12:05:27.060Z,20.90
2023-02-21T12:06:25.921Z,21.50
2023-02-21T12:07:25.903Z,21.20
2023-02-21T12:08:26.913Z,21.10
2023-02-21T12:09:25.939Z,20.70
2023-02-21T12:10:25.907Z,21.10
2023-02-21T12:11:25.908Z,21.20
2023-02-21T12:12:25.890Z,20.80
2023-02-21T12:13:25.877Z,21.20
2023-02-21T12:14:25.929Z,20.70
2023-02-21T12:15:25.929Z,20.70
2023-02-21T12:16:25.870Z,20.40
2023-02-21T12:17:26.853Z,20.70
2023-02-21T12:18:25.873Z,21.20
2023-02-21T12:19:25.860Z,20.00
2023-02-21T12:20:25.882Z,20.60
2023-02-21T12:21:25.844Z,21.40
2023-02-21T12:22:27.611Z,20.40
2023-02-21T12:23:25.850Z,21.10
2023-02-21T12:24:25.810Z,21.70
2023-02-21T12:25:25.843Z,23.10
2023-02-21T12:26:25.806Z,23.00
2023-02-21T12:27:25.797Z,21.90
2023-02-21T12:28:25.806Z,21.80
2023-02-21T12:29:25.845Z,21.40
2023-02-21T12:30:25.842Z,20.80
2023-02-21T12:31:25.891Z,21.40
2023-02-21T12:32:25.838Z,21.30
2023-02-21T12:33:26.205Z,21.60
2023-02-21T12:34:26.799Z,22.00
2023-02-21T12:35:25.778Z,22.20
2023-02-21T12:36:25.780Z,23.00
2023-02-21T12:37:25.765Z,23.90
2023-02-21T12:38:25.734Z,22.60
2023-02-21T12:39:25.764Z,22.20
2023-02-21T12:40:25.785Z,21.90
2023-02-21T12:41:25.733Z,22.00
2023-02-21T12:42:25.738Z,21.10
2023-02-21T12:43:25.726Z,21.60
2023-02-21T12:44:25.704Z,21.30
2023-02-21T12:45:25.721Z,22.50
2023-02-21T12:46:25.761Z,24.20
2023-02-21T12:47:25.710Z,21.40
2023-02-21T12:48:25.681Z,22.10
2023-02-21T12:49:25.671Z,21.60
2023-02-21T12:50:25.757Z,21.50
2023-02-21T12:51:25.684Z,21.60
2023-02-21T12:52:25.690Z,22.50